• Join FlightAware (Why Join?)
  • Login
  • US Flag 
10:43PM EDT


 

Airport Tracker/Info


-or-


 

Live Flight TrackerFlight Track Log ✈ EGF2981 ✈ 26-Apr-2013 ✈ KDFW - KCSG

Flight Track Log - Related Links

Times and Time Zones

All times are in EDT time to prevent confusion due to time zone crossing. See the EGF2981 flight status page for this flight to view local times or setup timezone preferences in your user account.

Time Position Orientation Groundspeed Altitude Reporting Facility
EDT Latitude Longitude Course Direction KTS MPH feet Rate Location/Type
02:35PM 32.8833 -97.0333 65° Northeast 150 173 1,700  Level Dallas / Fort Worth TRACON
02:36PM 32.8333 -97.0333 180° South 179 206 3,800 2,280 Climbing Dallas / Fort Worth TRACON
02:37PM 32.6858 -96.9459 103° East  Level FlightAware Approximate
02:37PM 32.7833 -97.0333 180° South 182 209 6,300  Level Dallas / Fort Worth TRACON
02:38PM 32.6833 -96.8006 90° East  Level FlightAware Approximate
02:38PM 32.7333 -97.0000 151° Southeast 251 289 7,700  Level Dallas / Fort Worth TRACON
02:39PM 32.7284 -96.6652 68° East  Level FlightAware Approximate
02:39PM 32.7500 -96.9000 79° East 328 377 9,500  Level Dallas / Fort Worth TRACON
02:40PM 32.7743 -96.5301 65° Northeast  Level FlightAware Approximate
02:40PM 32.7667 -96.7833 80° East 348 400 10,000  Level Dallas / Fort Worth TRACON
02:41PM 32.8254 -96.3976 65° Northeast  Level FlightAware Approximate
02:42PM 32.8058 -96.6200 74° East 386 444 11,800  Level Fort Worth Center
02:43PM 32.8281 -96.5111 76° East 386 444 13,400 1,500 Climbing Fort Worth Center
02:44PM 32.8564 -96.3772 76° East 375 432 14,900 1,260 Climbing Fort Worth Center
02:45PM 32.8678 -96.2633 83° East 375 432 16,000 1,080 Climbing Fort Worth Center
02:46PM 32.8706 -96.1222 89° East 380 437 17,100 900 Climbing Fort Worth Center
02:47PM 32.8714 -96.0011 89° East 387 445 17,900 960 Climbing Fort Worth Center
02:48PM 32.8739 -95.8525 89° East 409 471 19,100 1,020 Climbing Fort Worth Center
02:49PM 32.8764 -95.7214 89° East 415 478 20,000 1,020 Climbing Fort Worth Center
02:50PM 32.8783 -95.5631 89° East 429 494 21,200 1,020 Climbing Fort Worth Center
02:51PM 32.8783 -95.4294 90° East 442 509 22,100 1,020 Climbing Fort Worth Center
02:52PM 32.8903 -95.2636 85° East 447 514 23,300 1,140 Climbing Fort Worth Center
02:53PM 32.9147 -95.1169 79° East 447 514 24,400 1,020 Climbing Fort Worth Center
02:54PM 32.9411 -94.9678 78° East 447 514 25,400 1,020 Climbing Fort Worth Center
02:55PM 32.9611 -94.8211 81° East 447 514 26,500 1,080 Climbing Fort Worth Center
02:56PM 32.9831 -94.6744 80° East 447 514 27,600 1,020 Climbing Fort Worth Center
02:57PM 33.0092 -94.5300 78° East 447 514 28,600 1,020 Climbing Fort Worth Center
02:58PM 33.0475 -94.3900 72° East 447 514 29,700 1,020 Climbing Fort Worth Center
02:59PM 33.0858 -94.2497 72° East 447 514 30,700 1,020 Climbing Fort Worth Center
03:00PM 33.1219 -94.1097 73° East 441 507 31,800 1,020 Climbing Fort Worth Center
03:01PM 33.1575 -93.9619 74° East 441 507 32,800 600 Climbing Fort Worth Center
03:02PM 33.1783 -93.8072 81° East 452 520 33,000 60 Climbing Fort Worth Center
03:03PM 33.1903 -93.6453 85° East 471 542 33,000 360 Level Fort Worth Center
03:04PM 33.2042 -93.4858 84° East 482 555 33,800 840 Climbing Fort Worth Center
03:05PM 33.2139 -93.3292 86° East 482 555 34,700 900 Climbing Fort Worth Center
03:06PM 33.2272 -93.1722 84° East 482 555 35,700 960 Climbing Fort Worth Center
03:07PM 33.2386 -93.0150 85° East 482 555 36,700 600 Climbing Fort Worth Center
03:08PM 33.2497 -92.8606 85° East 482 555 37,000 120 Climbing Fort Worth Center
03:09PM 33.2522 -92.6989 89° East 482 555 37,000  Level Fort Worth Center
03:10PM 33.1914 -92.4200 105° East 505 581 37,000  Level Memphis Center
03:11PM 33.1564 -92.2581 104° East 505 581 37,000  Level Memphis Center
03:12PM 33.1256 -92.0961 103° East 500 575 37,000  Level Memphis Center
03:13PM 33.0817 -91.9217 107° East 500 575 37,000  Level Memphis Center
03:14PM 33.0483 -91.7625 104° East 495 570 37,000  Level Memphis Center
03:15PM 33.0144 -91.5983 104° East 495 570 37,000  Level Memphis Center
03:16PM 32.9764 -91.4369 106° East 495 570 37,000  Level Memphis Center
03:17PM 32.9419 -91.2756 104° East 495 570 37,000  Level Memphis Center
03:18PM 32.9075 -91.1169 104° East 495 570 37,000  Level Memphis Center
03:19PM 32.8772 -90.9708 104° East 502 578 37,000  Level Memphis Center
03:20PM 32.8403 -90.8097 105° East 502 578 37,000  Level Memphis Center
03:21PM 32.8053 -90.6489 104° East 502 578 37,000  Level Memphis Center
03:22PM 32.7700 -90.4883 105° East 497 572 37,000  Level Memphis Center
03:23PM 32.7325 -90.3278 105° East 497 572 37,000  Level Memphis Center
03:24PM 32.6969 -90.1697 105° East 497 572 37,000  Level Memphis Center
03:25PM 32.6611 -90.0094 105° East 497 572 37,000  Level Memphis Center
03:26PM 32.6228 -89.8492 106° East 497 572 37,000  Level Memphis Center
03:27PM 32.5822 -89.6719 105° East 497 572 37,000  Level Memphis Center
03:28PM 32.5481 -89.5144 104° East 497 572 37,000  Level Memphis Center
03:29PM 32.5092 -89.3522 106° East 497 572 37,000  Level Memphis Center
03:30PM 32.4703 -89.1925 106° East 497 572 37,000  Level Memphis Center
03:31PM 32.4331 -89.0331 105° East 497 572 37,000  Level Memphis Center
03:32PM 32.3958 -88.8761 106° East 497 572 37,000  Level Memphis Center
03:34PM 32.3889 -88.5964 92° East 502 578 37,000  Level Atlanta Center
03:35PM 32.3969 -88.4322 87° East 497 572 37,000  Level Atlanta Center
03:36PM 32.4047 -88.2678 87° East 497 572 37,000  Level Atlanta Center
03:37PM 32.4122 -88.1033 87° East 497 572 37,000 -420 Level Atlanta Center
03:38PM 32.4217 -87.9439 86° East 492 566 36,200 -900 Descending Atlanta Center
03:39PM 32.4286 -87.7892 87° East 487 560 35,200 -960 Descending Atlanta Center
03:40PM 32.4353 -87.6294 87° East 481 554 34,300 -960 Descending Atlanta Center
03:41PM 32.4419 -87.4747 87° East 474 545 33,300 -960 Descending Atlanta Center
03:42PM 32.4464 -87.3075 88° East 479 551 32,400 -900 Descending Atlanta Center
03:43PM 32.4525 -87.1478 87° East 484 557 31,500 -1,440 Descending Atlanta Center
03:44PM 32.4586 -86.9853 87° East 484 557 29,600 -1,980 Descending Atlanta Center
03:45PM 32.4644 -86.8281 87° East 484 557 27,600 -2,040 Descending Atlanta Center
03:46PM 32.4761 -86.6708 85° East 484 557 25,600 -2,100 Descending Atlanta Center
03:47PM 32.4797 -86.5061 88° East 484 557 23,500 -2,100 Descending Atlanta Center
03:48PM 32.4719 -86.3656 94° East 478 550 21,500 -2,100 Descending Atlanta Center
03:49PM 32.4789 -86.2106 87° East 473 544 19,400 -2,040 Descending Atlanta Center
03:50PM 32.4856 -86.0631 87° East 461 531 17,500 -2,160 Descending Atlanta Center
03:51PM 32.4922 -85.9081 87° East 441 507 15,100 -2,100 Descending Atlanta Center
03:52PM 32.4983 -85.7750 87° East 423 487 13,300 -1,680 Descending Atlanta Center
03:53PM 32.5000 -85.6469 89° East 401 461 11,800 -1,500 Descending Atlanta Center
03:54PM 32.5014 -85.5364 89° East 367 422 10,300 -1,320 Descending Atlanta Center
03:55PM 32.4964 -85.4378 93° East 327 376 9,200 -1,440 Descending Atlanta Center
03:56PM 32.4847 -85.3464 99° East 294 338 7,500 -1,800 Descending Atlanta Center
03:57PM 32.4753 -85.2625 98° East 274 315 5,700 -1,920 Descending Atlanta Center
03:58PM 32.4656 -85.1836 98° East 252 290 3,700 -2,040 Descending Atlanta Center